Historyczne dane pomiarowe

Dodano dane terminowe – wersja testowa.

Dane z okresu 1951-2019

Wersja bazy: 1.34 [2019-03-16, lista zmian], aktualizacja planowana na 2019-04-15

Dane meteo z obszaru Polski uzyskane na podstawie danych udostępnionych przez Instytut Meteorologii i Gospodarki Wodnej – Państwowy Instytut Badawczy.

 

Wybierz Datę:    

       

TemperaturaWilgotnośćWiatrCiśnienieOpadyŚniegCzas trwania zjawisk
 Stacja t tx tn tng RH VA  wxwx mslp ppp RRR   cm mm wxwxwxwxwxwxwx
1994-08-14 14.7 18.4 11.7- 66.5- 4.0 4.3---- 0.0------------
1994-08-13 15.9 21.4 13.6- 86.5- 7.3 5.7---- 0.0------------
1994-08-12 16.3 19.4 14.0- 91.0- 8.0 4.3---- 5.4------------
1994-08-11 18.1 20.4 16.2- 91.3- 6.3 2.0---- 11.4------------
1994-08-10 18.5 25.6 9.4- 78.8- 4.7 2.7---- 7.5------------
1994-08-09 18.0 22.1 15.7- 96.0- 7.0 2.0---- 15.6------------
1994-08-08 21.1 30.2 17.1- 90.0- 7.0 1.3---- 0.4------------
1994-08-07 23.1 31.3 18.0- 87.5- 4.3 0.3---- 4.1------------
1994-08-06 23.5 32.0 11.5- 68.8- 3.0 2.0---- 0.0------------
1994-08-05 22.8 29.8 12.9- 80.3- 1.3 1.3---- 0.0------------
1994-08-04 21.8 26.9 14.0- 88.8- 5.7 1.7---- 0.0------------
1994-08-03 22.5 31.8 16.6- 84.3- 5.7 1.7---- 1.7------------
1994-08-02 22.4 32.3 15.5- 85.8- 8.0 1.0---- 0.4------------
1994-08-01 26.2 34.1 17.0- 70.8- 4.7 1.3---- 0.0------------
1994-07-31 24.9 33.8 13.2- 68.5- 0.7 1.7---- 0.0------------
1994-07-30 24.3 33.8 11.0- 67.8- 2.3 1.7---- 0.0------------
1994-07-29 24.4 32.3 11.0- 71.3- 0.3 1.3---- 0.0------------
1994-07-28 22.5 31.9 11.0- 76.0- 2.0 1.3---- 0.0------------
1994-07-27 22.1 31.3 11.5- 79.5- 3.7 1.7---- 0.0------------
1994-07-26 22.8 32.0 11.3- 83.8- 2.0 2.0---- 0.0------------
1994-07-25 20.8 29.8 8.4- 69.0- 2.7 1.3---- 0.0------------
1994-07-24 20.9 28.1 8.3- 71.0- 0.7 2.0---- 0.0------------
1994-07-23 20.1 26.9 8.6- 73.8- 3.3 2.7---- 0.0------------
1994-07-22 19.3 27.6 7.3- 69.8- 1.3 3.0---- 0.0------------
1994-07-21 17.8 25.1 6.4- 74.8- 0.3 2.7---- 0.0------------
1994-07-20 18.9 25.4 11.0- 67.8- 2.3 3.0---- 0.0------------
1994-07-19 18.6 23.9 12.3- 87.3- 6.0 3.3---- 0.0------------
1994-07-18 20.1 25.3 13.8- 84.5- 4.3 1.7---- 0.0------------
1994-07-17 18.3 26.7 13.0- 91.8- 6.0 2.7---- 27.2------------
1994-07-16 20.2 29.2 12.0- 86.5- 5.3 2.3---- 9.1------------
1994-07-15 20.9 26.9 12.2- 80.5- 3.3 4.3---- 0.0------------
1994-07-14 20.1 28.8 10.2- 83.3- 6.3 2.7---- 0.0------------
1994-07-13 20.4 26.9 13.0- 76.5- 4.7 4.7---- 0.0------------
1994-07-12 20.2 25.9 14.3- 82.0- 4.3 3.3---- 0.0------------
1994-07-11 17.2 23.9 9.0- 90.3- 4.7 2.3---- 0.0------------
1994-07-10 16.1 22.4 11.4- 87.3- 6.0 4.0---- 0.7------------
1994-07-09 13.3 15.5 11.8- 93.3- 8.0 3.0---- 19.9------------
1994-07-08 15.1 18.9 12.9- 88.0- 7.0 5.3---- 1.1------------
1994-07-07 17.8 25.9 7.5- 80.5- 7.3 2.0---- 14.2------------
1994-07-06 20.0 24.9 10.8- 80.8- 3.3 1.3---- 0.0------------
1994-07-05 19.5 25.9 11.3- 76.5- 6.3 4.3---- 1.2------------
1994-07-04 20.4 29.6 5.7- 65.5- 2.0 3.0---- 0.0------------
1994-07-03 19.4 25.4 7.9- 65.8- 1.0 2.3---- 0.0------------
1994-07-02 17.8 24.4 6.8- 71.8- 0.7 2.7---- 0.0------------
1994-07-01 18.0 23.9 12.0- 76.3- 4.0 3.3---- 0.0------------
1994-06-30 20.8 26.9 16.6- 80.8- 7.0 4.3---- 0.0------------
1994-06-29 24.4 30.3 17.4- 75.8- 2.7 3.7---- 0.0------------
1994-06-28 24.1 30.0 17.1- 76.3- 4.7 3.0---- 0.0------------
1994-06-27 24.0 31.3 14.1- 83.3- 4.3 0.7---- 0.0------------
1994-06-26 21.0 29.3 6.6- 68.3- 3.3 3.0---- 0.0------------
1994-06-25 13.6 21.9 -0.4- 66.8- 0.0 3.7---- 0.0------------
1994-06-24 13.4 20.9 3.6- 62.8- 0.0 4.3---- 0.0------------
1994-06-23 17.3 23.9 14.7- 61.3- 2.3 8.7---- 0.0------------
1994-06-22 18.0 25.9 5.9- 67.8- 4.3 3.7---- 0.0------------
1994-06-21 14.9 20.9 3.2- 75.3- 2.7 2.0---- 0.0------------
1994-06-20 14.7 21.4 7.1- 80.5- 6.3 5.0---- 0.0------------
1994-06-19 17.2 24.9 10.1- 77.8- 3.0 5.7---- 0.0------------
1994-06-18 10.1 18.6 0.2- 87.3- 6.3 3.3---- 6.4------------
1994-06-17 10.3 14.8 7.5- 77.0- 4.7 5.0---- 0.0------------
1994-06-16 10.5 15.3 1.6- 81.3- 7.7 4.7---- 4.5------------
293.7 ms

 

Źródłem pochodzenia danych jest Instytut Meteorologii i Gospodarki Wodnej – Państwowy Instytut Badawczy. Dane Instytutu Meteorologii i Gospodarki Wodnej – Państwowego Instytutu Badawczego zostały przetworzone.

Dane źródłowe można odnaleźć na stronie https://dane.imgw.pl